createdAt,value
2019-04-05T00:00:30.038Z,47.80
2019-04-05T00:02:56.357Z,49.60
2019-04-05T00:05:22.753Z,55.70
2019-04-05T00:07:49.254Z,53.70
2019-04-05T00:10:15.750Z,56.63
2019-04-05T00:12:42.135Z,52.83
2019-04-05T00:15:15.662Z,56.03
2019-04-05T00:17:37.069Z,52.53
2019-04-05T00:20:03.963Z,54.30
2019-04-05T00:22:30.265Z,54.10
2019-04-05T00:24:56.541Z,58.00
2019-04-05T00:27:22.917Z,63.53
2019-04-05T00:29:49.310Z,63.30
2019-04-05T00:32:15.629Z,64.60
2019-04-05T00:34:41.898Z,61.33
2019-04-05T00:37:08.423Z,66.17
2019-04-05T00:39:34.709Z,64.30
2019-04-05T00:42:01.231Z,66.47
2019-04-05T00:44:27.526Z,66.37
2019-04-05T00:46:53.826Z,65.83
2019-04-05T00:49:20.206Z,64.80
2019-04-05T00:51:46.606Z,64.60
2019-04-05T00:54:12.999Z,60.93
2019-04-05T00:56:39.315Z,64.37
2019-04-05T00:59:05.722Z,63.87
2019-04-05T01:01:32.015Z,60.70
2019-04-05T01:03:58.506Z,61.40
2019-04-05T01:06:24.906Z,64.47
2019-04-05T01:08:51.286Z,62.30
2019-04-05T01:11:18.708Z,61.57
2019-04-05T01:13:45.093Z,58.57
2019-04-05T01:16:11.472Z,62.10
2019-04-05T01:18:38.056Z,64.70
2019-04-05T01:21:04.457Z,65.70
2019-04-05T01:23:31.080Z,67.03
2019-04-05T01:25:59.293Z,64.27
2019-04-05T01:28:25.694Z,66.97
2019-04-05T01:30:52.093Z,59.73
2019-04-05T01:33:18.493Z,65.03
2019-04-05T01:35:44.923Z,62.20
2019-04-05T01:38:11.430Z,60.77
2019-04-05T01:40:39.629Z,64.47
2019-04-05T01:43:06.110Z,65.13
2019-04-05T01:45:32.518Z,64.87
2019-04-05T01:47:58.829Z,62.97
2019-04-05T01:50:25.410Z,59.37
2019-04-05T01:52:51.697Z,63.53
2019-04-05T01:55:18.070Z,61.40
2019-04-05T01:57:44.497Z,57.10
2019-04-05T02:00:11.294Z,66.87
2019-04-05T02:02:37.887Z,57.00
2019-04-05T02:05:05.076Z,62.63
2019-04-05T02:07:31.849Z,63.03
2019-04-05T02:09:58.233Z,63.17
2019-04-05T02:12:24.632Z,64.43
2019-04-05T02:14:51.016Z,62.67
2019-04-05T02:17:17.427Z,61.77
2019-04-05T02:19:43.806Z,62.67
2019-04-05T02:22:10.185Z,61.07
2019-04-05T02:24:36.602Z,63.23
2019-04-05T02:27:02.934Z,61.17
2019-04-05T02:29:29.313Z,60.97
2019-04-05T02:31:56.738Z,61.50
2019-04-05T02:34:23.011Z,68.40
2019-04-05T02:36:49.432Z,60.70
2019-04-05T02:39:16.028Z,65.27
2019-04-05T02:41:42.386Z,64.63
2019-04-05T02:44:09.476Z,66.57
2019-04-05T02:46:36.230Z,68.40
2019-04-05T02:49:03.165Z,65.63
2019-04-05T02:51:30.594Z,66.97
2019-04-05T02:53:57.741Z,66.80
2019-04-05T02:56:24.310Z,66.73
2019-04-05T02:58:50.902Z,68.27
2019-04-05T03:01:17.546Z,65.50
2019-04-05T03:03:44.030Z,65.60
2019-04-05T03:06:10.810Z,71.70
2019-04-05T03:08:38.351Z,69.77
2019-04-05T03:11:10.483Z,66.47
2019-04-05T03:13:43.708Z,67.17
2019-04-05T03:16:13.045Z,63.60
2019-04-05T03:18:41.268Z,66.43
2019-04-05T03:21:08.625Z,66.13
2019-04-05T03:23:36.838Z,60.37
2019-04-05T03:26:03.935Z,64.77
2019-04-05T03:28:31.349Z,65.30
2019-04-05T03:30:57.926Z,65.67
2019-04-05T03:33:24.835Z,65.73
2019-04-05T03:35:51.320Z,66.20
2019-04-05T03:38:18.418Z,65.73
2019-04-05T03:40:44.904Z,66.33
2019-04-05T03:43:11.287Z,62.50
2019-04-05T03:45:37.888Z,63.47
2019-04-05T03:48:04.394Z,63.60
2019-04-05T03:50:31.073Z,63.37
2019-04-05T03:52:57.479Z,60.20
2019-04-05T03:55:23.872Z,65.73
2019-04-05T03:57:50.255Z,65.20
2019-04-05T04:00:16.844Z,58.77
2019-04-05T04:02:43.276Z,73.27
2019-04-05T04:05:09.772Z,60.60
2019-04-05T04:07:36.175Z,65.27
2019-04-05T04:10:02.970Z,64.67
2019-04-05T04:12:29.546Z,63.57
2019-04-05T04:14:58.414Z,69.80
2019-04-05T04:17:24.785Z,64.13
2019-04-05T04:19:51.184Z,66.17
2019-04-05T04:22:19.592Z,66.40
2019-04-05T04:24:46.066Z,66.70
2019-04-05T04:27:12.630Z,68.30
2019-04-05T04:29:39.379Z,66.30
2019-04-05T04:32:05.793Z,74.50
2019-04-05T04:34:32.277Z,70.87
2019-04-05T04:36:59.921Z,71.30
2019-04-05T04:39:26.322Z,68.23
2019-04-05T04:41:52.735Z,72.97
2019-04-05T04:46:59.979Z,70.80
2019-04-05T04:49:27.056Z,68.80
2019-04-05T04:51:53.932Z,69.53
2019-04-05T04:54:20.718Z,63.97
2019-04-05T04:56:47.474Z,96.23
2019-04-05T04:59:14.363Z,67.60
2019-04-05T05:01:41.186Z,61.17
2019-04-05T05:04:08.411Z,57.23
2019-04-05T05:06:35.296Z,60.70
2019-04-05T05:09:05.250Z,57.67
2019-04-05T05:11:32.032Z,54.17
2019-04-05T05:13:58.825Z,53.13
2019-04-05T05:16:25.881Z,53.37
2019-04-05T05:18:52.637Z,54.50
2019-04-05T05:21:19.511Z,52.07
2019-04-05T05:23:46.386Z,56.57
2019-04-05T05:26:13.165Z,60.27
2019-04-05T05:28:39.935Z,58.63
2019-04-05T05:31:06.822Z,55.97
2019-04-05T05:33:33.585Z,61.00
2019-04-05T05:36:00.470Z,60.17
2019-04-05T05:38:27.658Z,57.97
2019-04-05T05:40:54.440Z,61.97
2019-04-05T05:43:23.726Z,61.17
2019-04-05T05:45:49.906Z,56.73
2019-04-05T05:48:16.874Z,60.00
2019-04-05T05:50:44.141Z,59.77
2019-04-05T05:53:12.409Z,60.17
2019-04-05T05:55:39.098Z,60.17
2019-04-05T05:58:05.879Z,60.43
2019-04-05T06:00:32.933Z,58.17
2019-04-05T06:02:59.707Z,60.10
2019-04-05T06:05:26.372Z,60.63
2019-04-05T06:07:53.166Z,53.40
2019-04-05T06:10:19.994Z,57.07
2019-04-05T06:12:47.724Z,54.63
2019-04-05T06:15:14.494Z,53.10
2019-04-05T06:17:41.272Z,56.73
2019-04-05T06:20:08.585Z,52.63
2019-04-05T06:22:35.489Z,52.77
2019-04-05T06:25:02.442Z,55.33
2019-04-05T06:27:29.107Z,54.30
2019-04-05T06:29:55.825Z,55.67
2019-04-05T06:32:22.472Z,53.60
2019-04-05T06:34:49.202Z,55.20
2019-04-05T06:37:15.885Z,54.67
2019-04-05T06:39:42.556Z,57.23
2019-04-05T06:42:09.411Z,55.97
2019-04-05T06:44:36.116Z,55.17
2019-04-05T06:47:03.090Z,53.77
2019-04-05T06:49:30.565Z,57.40
2019-04-05T06:51:57.265Z,57.20
2019-04-05T06:54:24.274Z,57.13
2019-04-05T06:56:51.056Z,55.50
2019-04-05T06:59:19.371Z,55.67
2019-04-05T07:01:46.625Z,56.87
2019-04-05T07:04:13.392Z,56.47
2019-04-05T07:06:40.125Z,56.30
2019-04-05T07:09:08.006Z,54.20
2019-04-05T07:11:34.699Z,57.27
2019-04-05T07:14:01.513Z,53.47
2019-04-05T07:16:28.233Z,55.20
2019-04-05T07:18:55.007Z,56.50
2019-04-05T07:21:21.813Z,54.07
2019-04-05T07:23:48.487Z,54.63
2019-04-05T07:26:16.468Z,54.73
2019-04-05T07:28:43.161Z,52.87
2019-04-05T07:31:09.812Z,53.53
2019-04-05T07:33:36.823Z,58.27
2019-04-05T07:36:03.745Z,56.10
2019-04-05T07:38:30.449Z,52.40
2019-04-05T07:40:57.252Z,54.67
2019-04-05T07:43:23.909Z,53.23
2019-04-05T07:45:50.708Z,51.90
2019-04-05T07:48:17.493Z,53.50
2019-04-05T07:50:44.166Z,52.90
2019-04-05T07:53:10.852Z,55.87
2019-04-05T07:55:37.642Z,55.00
2019-04-05T07:58:04.323Z,54.23
2019-04-05T08:00:44.017Z,53.60
2019-04-05T08:03:10.715Z,51.60
2019-04-05T08:05:37.686Z,51.20
2019-04-05T08:08:06.387Z,53.40
2019-04-05T08:10:33.370Z,52.73
2019-04-05T08:13:00.866Z,53.27
2019-04-05T08:15:28.204Z,53.00
2019-04-05T08:17:54.927Z,51.97
2019-04-05T08:20:21.702Z,54.07
2019-04-05T08:22:48.409Z,50.17
2019-04-05T08:25:15.166Z,51.67
2019-04-05T08:27:41.843Z,53.27
2019-04-05T08:30:08.635Z,52.23
2019-04-05T08:32:35.313Z,50.43
2019-04-05T08:35:02.824Z,48.73
2019-04-05T08:37:29.486Z,50.40
2019-04-05T08:39:56.150Z,50.87
2019-04-05T08:42:22.832Z,51.87
2019-04-05T08:44:49.499Z,53.87
2019-04-05T08:47:16.198Z,54.40
2019-04-05T08:49:43.067Z,52.40
2019-04-05T08:52:09.729Z,55.10
2019-04-05T08:54:36.919Z,53.90
2019-04-05T08:57:04.486Z,53.50
2019-04-05T08:59:31.166Z,53.60
2019-04-05T09:01:57.846Z,53.37
2019-04-05T09:04:24.635Z,50.93
2019-04-05T09:06:51.413Z,55.17
2019-04-05T09:09:18.105Z,52.70
2019-04-05T09:11:44.774Z,52.57
2019-04-05T09:14:11.461Z,53.30
2019-04-05T09:16:38.229Z,53.83
2019-04-05T09:19:04.991Z,57.00
2019-04-05T09:21:31.788Z,59.10
2019-04-05T09:23:59.353Z,55.00
2019-04-05T09:26:26.354Z,52.57
2019-04-05T09:28:53.139Z,54.70
2019-04-05T09:31:19.824Z,54.90
2019-04-05T09:33:46.511Z,52.07
2019-04-05T09:36:13.486Z,51.50
2019-04-05T09:38:40.155Z,53.87
2019-04-05T09:41:06.830Z,53.87
2019-04-05T09:43:33.630Z,54.20
2019-04-05T09:46:00.310Z,55.43
2019-04-05T09:48:27.203Z,54.20
2019-04-05T09:50:53.882Z,49.60
2019-04-05T09:53:20.580Z,56.80
2019-04-05T09:55:47.302Z,53.90
2019-04-05T09:58:13.972Z,51.87
2019-04-05T10:00:40.645Z,58.83
2019-04-05T10:03:07.334Z,55.00
2019-04-05T10:05:34.125Z,71.70
2019-04-05T10:08:00.912Z,55.43
2019-04-05T10:10:27.940Z,56.87
2019-04-05T10:12:54.622Z,55.40
2019-04-05T10:15:21.926Z,56.67
2019-04-05T10:17:48.904Z,54.00
2019-04-05T10:20:15.739Z,54.07
2019-04-05T10:22:42.520Z,66.20
2019-04-05T10:25:09.438Z,60.33
2019-04-05T10:27:36.128Z,58.20
2019-04-05T10:30:04.606Z,56.77
2019-04-05T10:32:31.304Z,52.33
2019-04-05T10:34:58.011Z,52.73
2019-04-05T10:37:24.781Z,59.13
2019-04-05T10:39:51.573Z,55.43
2019-04-05T10:42:32.513Z,57.00
2019-04-05T10:44:59.411Z,64.57
2019-04-05T10:47:26.726Z,54.27
2019-04-05T10:50:03.127Z,58.57
2019-04-05T10:52:22.382Z,61.53
2019-04-05T10:54:49.056Z,57.03
2019-04-05T10:57:15.772Z,57.33
2019-04-05T10:59:42.440Z,57.30
2019-04-05T11:02:09.219Z,58.10
2019-04-05T11:04:36.005Z,58.20
2019-04-05T11:07:02.810Z,55.10
2019-04-05T11:09:29.578Z,55.60
2019-04-05T11:11:56.265Z,48.90
2019-04-05T11:14:23.042Z,54.13
2019-04-05T11:16:58.389Z,57.30
2019-04-05T11:19:18.411Z,53.60
2019-04-05T11:21:47.878Z,54.67
2019-04-05T11:24:13.704Z,55.60
2019-04-05T11:26:40.383Z,54.60
2019-04-05T11:29:07.083Z,53.90
2019-04-05T11:31:34.125Z,51.83
2019-04-05T11:34:00.891Z,57.37
2019-04-05T11:36:27.677Z,55.33
2019-04-05T11:38:54.738Z,50.20
2019-04-05T11:41:22.436Z,56.10
2019-04-05T11:43:51.014Z,76.63
2019-04-05T11:46:18.400Z,52.63
2019-04-05T11:48:45.819Z,55.97
2019-04-05T11:51:12.515Z,47.70
2019-04-05T11:53:39.325Z,52.40
2019-04-05T11:56:14.373Z,55.90
2019-04-05T11:58:34.679Z,51.70
2019-04-05T12:01:23.330Z,55.30
2019-04-05T12:03:49.729Z,54.03
2019-04-05T12:06:16.501Z,57.57
2019-04-05T12:08:43.176Z,62.53
2019-04-05T12:11:09.954Z,62.20
2019-04-05T12:13:36.740Z,83.43
2019-04-05T12:16:05.794Z,61.83
2019-04-05T12:18:34.427Z,54.37
2019-04-05T12:21:04.962Z,55.33
2019-04-05T12:23:32.563Z,56.67
2019-04-05T12:25:58.257Z,53.47
2019-04-05T12:28:24.930Z,49.93
2019-04-05T12:30:51.597Z,55.90
2019-04-05T12:33:19.667Z,53.47
2019-04-05T12:35:46.843Z,71.53
2019-04-05T12:38:31.549Z,57.67
2019-04-05T12:41:00.331Z,52.53
2019-04-05T12:43:27.094Z,49.60
2019-04-05T12:45:53.889Z,54.03
2019-04-05T12:48:21.132Z,52.13
2019-04-05T12:51:00.350Z,49.60
2019-04-05T12:53:16.486Z,48.90
2019-04-05T12:55:43.262Z,50.00
2019-04-05T12:58:10.202Z,50.37
2019-04-05T13:00:38.881Z,50.00
2019-04-05T13:03:05.551Z,49.40
2019-04-05T13:05:32.335Z,51.20
2019-04-05T13:07:59.010Z,50.77
2019-04-05T13:10:26.473Z,47.90
2019-04-05T13:12:56.824Z,50.87
2019-04-05T13:15:22.152Z,51.43
2019-04-05T13:17:48.810Z,52.60
2019-04-05T13:20:15.686Z,52.53
2019-04-05T13:22:42.366Z,51.70
2019-04-05T13:25:11.089Z,53.30
2019-04-05T13:27:41.244Z,49.17
2019-04-05T13:30:06.651Z,51.20
2019-04-05T13:32:33.298Z,51.67
2019-04-05T13:35:00.190Z,53.07
2019-04-05T13:37:28.535Z,49.10
2019-04-05T13:39:55.552Z,47.90
2019-04-05T13:42:22.243Z,56.17
2019-04-05T13:44:49.005Z,47.67
2019-04-05T13:47:15.805Z,48.10
2019-04-05T13:49:42.502Z,50.70
2019-04-05T13:52:12.046Z,59.17
2019-04-05T13:54:40.360Z,47.80
2019-04-05T13:57:08.593Z,46.20
2019-04-05T13:59:37.134Z,48.57
2019-04-05T14:02:06.414Z,47.17
2019-04-05T14:04:32.823Z,46.30
2019-04-05T14:06:59.604Z,52.20
2019-04-05T14:09:26.386Z,47.90
2019-04-05T14:11:53.212Z,45.77
2019-04-05T14:14:19.869Z,46.07
2019-04-05T14:16:46.553Z,46.13
2019-04-05T14:19:13.329Z,47.83
2019-04-05T14:21:45.899Z,51.63
2019-04-05T14:24:08.629Z,46.27
2019-04-05T14:26:35.301Z,52.40
2019-04-05T14:29:03.703Z,51.97
2019-04-05T14:31:31.634Z,55.30
2019-04-05T14:33:58.970Z,54.30
2019-04-05T14:36:25.649Z,56.07
2019-04-05T14:38:52.343Z,57.90
2019-04-05T14:41:19.013Z,55.07
2019-04-05T14:43:45.828Z,57.93
2019-04-05T14:46:12.739Z,49.77
2019-04-05T14:48:40.690Z,55.67
2019-04-05T14:51:07.498Z,56.03
2019-04-05T14:53:34.298Z,53.70
2019-04-05T14:56:01.074Z,55.50
2019-04-05T14:58:27.777Z,53.60
2019-04-05T15:00:54.791Z,53.43
2019-04-05T15:03:21.496Z,54.87
2019-04-05T15:05:48.374Z,55.23
2019-04-05T15:08:15.357Z,55.87
2019-04-05T15:10:42.222Z,53.17
2019-04-05T15:13:10.012Z,59.83
2019-04-05T15:15:36.697Z,59.27
2019-04-05T15:18:03.486Z,55.40
2019-04-05T15:20:30.142Z,53.07
2019-04-05T15:22:56.839Z,62.03
2019-04-05T15:25:23.619Z,57.90
2019-04-05T15:27:55.162Z,52.80
2019-04-05T15:30:19.057Z,53.57
2019-04-05T15:32:45.865Z,50.60
2019-04-05T15:35:12.666Z,51.30
2019-04-05T15:37:39.440Z,51.20
2019-04-05T15:40:06.938Z,53.23
2019-04-05T15:42:34.577Z,84.93
2019-04-05T15:45:02.097Z,51.77
2019-04-05T15:47:31.945Z,50.67
2019-04-05T15:49:59.306Z,56.60
2019-04-05T15:52:30.101Z,51.10
2019-04-05T15:54:56.946Z,49.87
2019-04-05T15:57:24.702Z,50.53
2019-04-05T15:59:51.412Z,54.10
2019-04-05T16:02:18.760Z,64.90
2019-04-05T16:04:45.870Z,54.70
2019-04-05T16:07:12.586Z,52.43
2019-04-05T16:09:39.248Z,56.30
2019-04-05T16:12:06.325Z,54.40
2019-04-05T16:14:33.093Z,54.53
2019-04-05T16:16:59.879Z,56.37
2019-04-05T16:19:26.653Z,55.90
2019-04-05T16:21:53.438Z,51.90
2019-04-05T16:24:20.115Z,68.07
2019-04-05T16:26:46.784Z,54.37
2019-04-05T16:29:13.466Z,53.10
2019-04-05T16:31:40.137Z,53.03
2019-04-05T16:34:06.826Z,53.00
2019-04-05T16:36:33.786Z,53.37
2019-04-05T16:39:00.570Z,50.10
2019-04-05T16:41:27.242Z,51.63
2019-04-05T16:43:54.038Z,50.17
2019-04-05T16:46:20.851Z,51.03
2019-04-05T16:48:47.540Z,50.83
2019-04-05T16:51:14.543Z,49.13
2019-04-05T16:54:00.347Z,49.27
2019-04-05T16:56:27.313Z,50.43
2019-04-05T16:58:55.206Z,52.17
2019-04-05T17:01:27.221Z,49.53
2019-04-05T17:03:50.793Z,53.23
2019-04-05T17:06:17.498Z,49.10
2019-04-05T17:08:45.590Z,50.13
2019-04-05T17:11:12.439Z,48.30
2019-04-05T17:13:39.548Z,46.60
2019-04-05T17:16:06.644Z,46.33
2019-04-05T17:18:33.369Z,48.47
2019-04-05T17:21:00.058Z,47.03
2019-04-05T17:23:27.029Z,45.67
2019-04-05T17:25:54.130Z,42.97
2019-04-05T17:28:20.812Z,44.57
2019-04-05T17:30:47.508Z,46.20
2019-04-05T17:33:14.228Z,46.50
2019-04-05T17:35:40.919Z,45.83
2019-04-05T17:38:07.611Z,46.47
2019-04-05T17:40:34.284Z,43.83
2019-04-05T17:43:01.154Z,43.40
2019-04-05T17:45:28.105Z,43.93
2019-04-05T17:47:55.068Z,43.80
2019-04-05T17:50:30.679Z,44.40
2019-04-05T17:53:10.901Z,42.10
2019-04-05T17:55:26.398Z,47.27
2019-04-05T17:57:54.725Z,44.47
2019-04-05T18:00:23.160Z,45.20
2019-04-05T18:02:49.847Z,44.90
2019-04-05T18:05:16.552Z,40.90
2019-04-05T18:07:43.249Z,42.60
2019-04-05T18:10:10.191Z,42.77
2019-04-05T18:12:37.114Z,44.97
2019-04-05T18:15:04.043Z,38.60
2019-04-05T18:17:31.225Z,43.73
2019-04-05T18:19:58.049Z,41.47
2019-04-05T18:22:24.734Z,40.90
2019-04-05T18:24:51.525Z,42.00
2019-04-05T18:27:18.321Z,44.40
2019-04-05T18:29:45.005Z,42.90
2019-04-05T18:32:12.997Z,44.13
2019-04-05T18:34:39.711Z,44.10
2019-04-05T18:37:06.747Z,44.23
2019-04-05T18:39:33.466Z,43.70
2019-04-05T18:42:00.172Z,42.70
2019-04-05T18:44:26.852Z,39.83
2019-04-05T18:46:53.576Z,40.77
2019-04-05T18:49:20.953Z,42.87
2019-04-05T18:51:47.823Z,44.47
2019-04-05T18:54:14.635Z,42.53
2019-04-05T18:56:42.510Z,42.30
2019-04-05T18:59:09.197Z,43.63
2019-04-05T19:01:35.994Z,43.67
2019-04-05T19:04:05.407Z,44.60
2019-04-05T19:06:31.601Z,43.20
2019-04-05T19:08:58.481Z,42.93
2019-04-05T19:11:25.435Z,42.50
2019-04-05T19:14:01.132Z,42.80
2019-04-05T19:16:21.234Z,43.70
2019-04-05T19:18:47.930Z,43.93
2019-04-05T19:21:14.606Z,43.77
2019-04-05T19:23:50.677Z,43.33
2019-04-05T19:26:14.901Z,48.47
2019-04-05T19:28:44.681Z,44.57
2019-04-05T19:48:58.883Z,42.70
2019-04-05T19:51:28.620Z,44.07
2019-04-05T19:54:01.204Z,41.70
2019-04-05T19:56:24.317Z,41.07
2019-04-05T19:58:51.246Z,39.60
2019-04-05T20:01:18.195Z,43.83
2019-04-05T20:03:44.891Z,42.30
2019-04-05T20:06:11.583Z,42.37
2019-04-05T20:08:38.366Z,42.63
2019-04-05T20:11:05.161Z,44.20
2019-04-05T20:13:32.283Z,34.57
2019-04-05T20:15:59.142Z,36.10
2019-04-05T20:18:26.382Z,39.10
2019-04-05T20:20:53.221Z,40.57
2019-04-05T20:23:20.157Z,41.20
2019-04-05T20:25:47.148Z,32.40
2019-04-05T20:28:14.282Z,39.37
2019-04-05T20:30:40.945Z,38.90
2019-04-05T20:33:07.715Z,41.07
2019-04-05T20:35:37.074Z,38.30
2019-04-05T20:38:04.530Z,36.07
2019-04-05T20:40:32.585Z,38.23
2019-04-05T20:42:59.953Z,38.80
2019-04-05T20:45:26.766Z,40.00
2019-04-05T20:47:53.556Z,39.37
2019-04-05T20:50:20.355Z,39.73
2019-04-05T20:52:47.089Z,40.03
2019-04-05T20:55:13.735Z,38.60
2019-04-05T20:57:40.419Z,40.60
2019-04-05T21:00:08.913Z,38.00
2019-04-05T21:02:37.498Z,39.40
2019-04-05T21:05:04.861Z,37.90
2019-04-05T21:07:31.536Z,37.27
2019-04-05T21:09:58.206Z,37.80
2019-04-05T21:12:25.007Z,37.00
2019-04-05T21:14:52.695Z,36.50
2019-04-05T21:17:19.485Z,35.57
2019-04-05T21:19:46.198Z,38.23
2019-04-05T21:22:12.866Z,37.87
2019-04-05T21:24:39.558Z,38.70
2019-04-05T21:27:06.241Z,36.63
2019-04-05T21:29:32.930Z,38.47
2019-04-05T21:31:59.894Z,38.80
2019-04-05T21:34:26.585Z,39.03
2019-04-05T21:36:53.273Z,37.47
2019-04-05T21:39:19.950Z,39.30
2019-04-05T21:41:46.758Z,38.93
2019-04-05T21:44:14.463Z,38.53
2019-04-05T21:46:41.285Z,39.37
2019-04-05T21:49:08.097Z,39.63
2019-04-05T21:51:34.786Z,40.90
2019-04-05T21:54:01.570Z,42.70
2019-04-05T21:56:28.258Z,41.13
2019-04-05T21:58:54.962Z,38.80
2019-04-05T22:01:22.144Z,40.40
2019-04-05T22:03:50.840Z,39.90
2019-04-05T22:06:17.655Z,40.20
2019-04-05T22:08:44.311Z,39.10
2019-04-05T22:11:11.089Z,60.83
2019-04-05T22:13:37.781Z,51.73
2019-04-05T22:16:05.670Z,47.80
2019-04-05T22:18:32.354Z,41.00
2019-04-05T22:20:59.038Z,44.87
2019-04-05T22:23:25.968Z,42.83
2019-04-05T22:25:53.053Z,42.87
2019-04-05T22:28:19.853Z,42.37
2019-04-05T22:30:46.646Z,42.80
2019-04-05T22:33:13.356Z,43.23
2019-04-05T22:35:40.076Z,42.13
2019-04-05T22:38:06.871Z,43.13
2019-04-05T22:40:33.542Z,42.90
2019-04-05T22:43:00.288Z,42.30
2019-04-05T22:45:26.955Z,41.83
2019-04-05T22:47:53.742Z,42.57
2019-04-05T22:50:20.434Z,43.50
2019-04-05T22:52:47.123Z,43.20
2019-04-05T22:55:13.909Z,41.90
2019-04-05T22:57:40.677Z,42.70
2019-04-05T23:00:07.691Z,43.70
2019-04-05T23:02:36.381Z,43.13
2019-04-05T23:05:03.698Z,44.77
2019-04-05T23:07:30.396Z,42.37
2019-04-05T23:09:57.116Z,45.27
2019-04-05T23:12:23.775Z,45.17
2019-04-05T23:14:50.569Z,47.60
2019-04-05T23:17:17.224Z,46.67
2019-04-05T23:19:43.908Z,49.00
2019-04-05T23:22:10.682Z,54.83
2019-04-05T23:24:37.454Z,52.13
2019-04-05T23:27:04.175Z,49.27
2019-04-05T23:29:30.868Z,47.77
2019-04-05T23:31:57.529Z,47.97
2019-04-05T23:34:24.221Z,47.80
2019-04-05T23:36:51.029Z,85.13
2019-04-05T23:39:17.799Z,48.20
2019-04-05T23:41:44.575Z,57.40
2019-04-05T23:44:11.247Z,59.47
2019-04-05T23:46:38.067Z,46.43
2019-04-05T23:49:04.803Z,47.83
2019-04-05T23:51:31.494Z,54.30
2019-04-05T23:53:58.186Z,47.63
2019-04-05T23:56:24.879Z,159.23
2019-04-05T23:58:51.558Z,55.10
